Terminal Aerodrome Forecast
Issued by NWS

Home | Current Version | Previous Version | Text Only | Print | Product List | Glossary On
Versions: 1 2 3 4 5 6 7 8 9 10 11 12 13 14 15 16 17 18 19 20
000
FTUS43 KMPX 272005 AAA
TAFAXN
TAF AMD
KAXN 272005Z 2720/2818 14012KT P6SM OVC006
     FM272300 15011KT P6SM OVC008
     FM280200 15013KT P6SM BKN011
     FM280800 14011KT 4SM BR OVC007=

USA.gov is the U.S. government's official web portal to all federal, state and local government web resources and services.